Anna Maria, Florida
Current Conditions -  °F | °C
As of 7:53 PM on Tuesday 21 Oct 2014 (Local Time) from KSRQ Reporting Station
Clear Clear  
Wind Chill: 77°   Ceiling: Unl
Heat Index: 79°   Visibility: 10mi
Dew Point: 66°   Wind: 0mph
Humidity: 69%   Direction: NA
Pressure: 29.91"   Gusts: NA
Location:  27.53°N, 82.73°W
Report Text: KSRQ 212353Z AUTO 00000KT 10SM CLR 25/19 A2991 RMK AO2 SLP129 T02500189 10294 20250 53009
Loading
Personal Weather Stations






























Interactive Weather Map New forecast layout! Learn more

10-Day Weather Forecast

Advertisements
Track Severe Weather on mobile